Airfield :
LOGIN :

Register | Disclaimer

   EN    FR    IT 

 










Legend :    VFR   Marginal VFR   IFR   Intensive IFR   Very Intensive IFR
Visi :
Ceiling :
>= 8 km
>= 3000ft
5 to 8 km
1000 to 3000 ft
1500m to 5 km
500 to 1000 ft
800 to 1500m
200 to 500 ft
< 800m
< 200 ft
Symbols :   Thunderstorms  Fog  Heavy snow  Heavy precipitations  Wind > 20 kt
SIGMETs :     Misc.  Thunderstorms  Icing  Turbulence  Mountain Waves  Volcanic Ashes







- Airport Elevation : 15 ft
- IATA code : FCO


LIRF - Roma Leonardo da Vinci Fiumicino

CURRENT METAR :
  • 260250Z 04003KT 9000 R16L/P1500N R16R/1000VP1500D R25/1000VP1500D MIFG FEW012 09/08 Q1019 TEMPO 2000 BCFG

EXPIRED METARs :
  • 260220Z 02003KT 9000 R16L/P1500N R16R/P1500N R25/0800VP1500D MIFG FEW012 08/08 Q1019 TEMPO 2000 BCFG
  • 260150Z VRB02KT 8000 R16L/P1500N R16R/1100VP1500D R25/0900V1000 FEW015 09/09 Q1019 NOSIG
  • 260120Z 11003KT CAVOK 10/09 Q1019 NOSIG
  • 260050Z 08004KT CAVOK 11/10 Q1020 NOSIG

TAF TAF LIRF
Valid from the 26 at 00:00 until the 27 at 06:00 UTC


252300Z 2600/2706 VRB05KT 8000 SCT025
TEMPO 2600/2606 RA
BECMG 2604/2606 31012KT
BECMG 2617/2619 VRB05KT
No reported NOTAMs for that airfield.



MET'MAP, your aeronautical weather chart ! - Copyright ORBIFLY December 2007 - Disclaimer

ORBIFLY MET'MAP TEAM :

Programming & Development : Alexandra Zaïnal
Concept & Development : Baudouin d'Aumeries
Co-Development & Prog : Marc-Olivier Méhu
Technical & hardware support : Manuel Goepfert

Contact : metmap@orbifly.com




SOURCES & CREDITS :

   NOAA